createdAt,value
2022-08-17T00:00:35.123Z,954.39
2022-08-17T00:02:17.004Z,954.34
2022-08-17T00:03:15.521Z,954.37
2022-08-17T00:04:15.658Z,954.31
2022-08-17T00:06:15.453Z,954.28
2022-08-17T00:07:15.520Z,954.29
2022-08-17T00:08:15.498Z,954.24
2022-08-17T00:09:18.254Z,954.22
2022-08-17T00:13:15.539Z,954.23
2022-08-17T00:17:15.502Z,954.2
2022-08-17T00:18:53.709Z,954.19
2022-08-17T00:19:15.579Z,954.16
2022-08-17T00:20:15.607Z,954.17
2022-08-17T00:21:15.468Z,954.18
2022-08-17T00:22:33.349Z,954.17
2022-08-17T00:23:15.699Z,954.12
2022-08-17T00:24:15.586Z,954.13
2022-08-17T00:25:15.549Z,954.15
2022-08-17T00:26:15.529Z,954.1
2022-08-17T00:27:15.711Z,954.17
2022-08-17T00:28:15.561Z,954.18
2022-08-17T00:30:15.593Z,954.2
2022-08-17T00:31:15.557Z,954.24
2022-08-17T00:33:10.773Z,954.19
2022-08-17T00:33:16.953Z,954.25
2022-08-17T00:34:15.674Z,954.21
2022-08-17T00:35:15.537Z,954.18
2022-08-17T00:36:15.499Z,954.21
2022-08-17T00:37:15.554Z,954.18
2022-08-17T00:38:15.498Z,954.15
2022-08-17T00:40:15.660Z,954.12
2022-08-17T00:41:15.507Z,954.09
2022-08-17T00:42:15.508Z,954.07
2022-08-17T00:43:15.573Z,954.08
2022-08-17T00:44:15.587Z,954.07
2022-08-17T00:46:15.575Z,954.11
2022-08-17T00:47:15.643Z,954.14
2022-08-17T00:48:26.165Z,954.11
2022-08-17T00:49:15.568Z,954.15
2022-08-17T00:50:15.542Z,954.1
2022-08-17T00:51:15.536Z,954.09
2022-08-17T00:52:15.694Z,954.1
2022-08-17T00:53:15.543Z,954.14
2022-08-17T00:54:15.617Z,954.11
2022-08-17T00:55:15.579Z,954.1
2022-08-17T00:56:15.647Z,954.13
2022-08-17T00:57:15.623Z,954.06
2022-08-17T00:58:15.690Z,954.04
2022-08-17T00:59:15.660Z,954.02
2022-08-17T01:00:15.558Z,953.97
2022-08-17T01:01:21.275Z,953.95
2022-08-17T01:02:15.753Z,953.97
2022-08-17T01:03:15.631Z,953.93
2022-08-17T01:04:15.707Z,953.92
2022-08-17T01:05:15.669Z,953.94
2022-08-17T01:06:15.642Z,953.91
2022-08-17T01:07:15.701Z,953.89
2022-08-17T01:10:57.894Z,953.95
2022-08-17T01:12:15.883Z,953.94
2022-08-17T01:13:15.613Z,953.98
2022-08-17T01:14:15.681Z,953.96
2022-08-17T01:15:15.656Z,953.95
2022-08-17T01:16:15.716Z,953.96
2022-08-17T01:17:15.695Z,954.04
2022-08-17T01:18:15.657Z,954.03
2022-08-17T01:19:15.724Z,954.04
2022-08-17T01:20:15.682Z,954.05
2022-08-17T01:21:15.644Z,954.07
2022-08-17T01:22:15.590Z,954.1
2022-08-17T01:23:16.451Z,954.07
2022-08-17T01:24:15.771Z,954.09
2022-08-17T01:25:15.615Z,954.08
2022-08-17T01:26:15.693Z,954.12
2022-08-17T01:27:15.773Z,954.13
2022-08-17T01:28:33.759Z,954.12
2022-08-17T01:29:15.853Z,954.14
2022-08-17T01:30:57.672Z,954.16
2022-08-17T01:31:15.732Z,954.15
2022-08-17T01:32:15.713Z,954.17
2022-08-17T01:33:15.628Z,954.18
2022-08-17T01:34:15.740Z,954.21
2022-08-17T01:36:15.644Z,954.22
2022-08-17T01:37:15.743Z,954.24
2022-08-17T01:38:15.715Z,954.27
2022-08-17T01:39:15.788Z,954.28
2022-08-17T01:40:15.765Z,954.33
2022-08-17T01:41:15.715Z,954.4
2022-08-17T01:42:15.704Z,954.46
2022-08-17T01:43:15.749Z,954.47
2022-08-17T01:44:15.725Z,954.51
2022-08-17T01:45:15.724Z,954.49
2022-08-17T01:46:15.757Z,954.51
2022-08-17T01:47:15.671Z,954.54
2022-08-17T01:48:15.680Z,954.58
2022-08-17T01:49:15.669Z,954.57
2022-08-17T01:50:15.729Z,954.63
2022-08-17T01:51:15.800Z,954.64
2022-08-17T01:52:15.768Z,954.67
2022-08-17T01:53:17.014Z,954.69
2022-08-17T01:54:15.700Z,954.72
2022-08-17T01:55:15.764Z,954.76
2022-08-17T01:56:15.849Z,954.81
2022-08-17T01:57:15.807Z,954.85
2022-08-17T01:58:15.776Z,954.87
2022-08-17T01:59:15.690Z,954.88
2022-08-17T02:00:15.807Z,954.91
2022-08-17T02:01:15.764Z,954.93
2022-08-17T02:02:30.727Z,954.98
2022-08-17T02:03:15.818Z,955.03
2022-08-17T02:04:15.907Z,955.09
2022-08-17T02:05:15.749Z,955.08
2022-08-17T02:06:26.964Z,955.12
2022-08-17T02:08:20.314Z,955.13
2022-08-17T02:09:16.683Z,955.17
2022-08-17T02:10:16.701Z,955.12
2022-08-17T02:11:15.882Z,955.14
2022-08-17T02:12:38.728Z,955.15
2022-08-17T02:13:15.951Z,955.12
2022-08-17T02:14:15.745Z,955.14
2022-08-17T02:15:15.829Z,955.15
2022-08-17T02:16:15.809Z,955.17
2022-08-17T02:18:15.838Z,955.2
2022-08-17T02:19:15.895Z,955.22
2022-08-17T02:20:15.752Z,955.23
2022-08-17T02:21:15.947Z,955.24
2022-08-17T02:22:15.840Z,955.26
2022-08-17T02:23:15.761Z,955.29
2022-08-17T02:24:15.846Z,955.31
2022-08-17T02:25:16.333Z,955.32
2022-08-17T02:26:24.253Z,955.33
2022-08-17T02:27:15.895Z,955.38
2022-08-17T02:28:15.844Z,955.41
2022-08-17T02:29:15.885Z,955.39
2022-08-17T02:30:50.045Z,955.38
2022-08-17T02:31:15.817Z,955.35
2022-08-17T02:32:20.755Z,955.37
2022-08-17T02:34:15.910Z,955.33
2022-08-17T02:35:15.893Z,955.34
2022-08-17T02:36:15.949Z,955.35
2022-08-17T02:37:15.850Z,955.33
2022-08-17T02:39:15.785Z,955.32
2022-08-17T02:40:16.140Z,955.3
2022-08-17T02:41:15.795Z,955.32
2022-08-17T02:42:15.873Z,955.35
2022-08-17T02:43:15.837Z,955.39
2022-08-17T02:44:35.334Z,955.45
2022-08-17T02:46:15.844Z,955.49
2022-08-17T02:47:15.915Z,955.51
2022-08-17T02:48:15.869Z,955.55
2022-08-17T02:50:15.825Z,955.57
2022-08-17T02:51:15.981Z,955.58
2022-08-17T02:52:15.947Z,955.61
2022-08-17T02:53:15.916Z,955.64
2022-08-17T02:54:39.060Z,955.7
2022-08-17T02:55:15.958Z,955.67
2022-08-17T02:56:15.915Z,955.72
2022-08-17T02:57:15.995Z,955.69
2022-08-17T02:58:15.847Z,955.71
2022-08-17T02:59:15.855Z,955.64
2022-08-17T03:00:16.895Z,955.63
2022-08-17T03:01:16.007Z,955.66
2022-08-17T03:02:15.928Z,955.61
2022-08-17T03:03:15.998Z,955.59
2022-08-17T03:04:15.970Z,955.56
2022-08-17T03:05:15.931Z,955.57
2022-08-17T03:06:15.860Z,955.56
2022-08-17T03:10:15.973Z,955.55
2022-08-17T03:12:16.947Z,955.53
2022-08-17T03:13:15.980Z,955.55
2022-08-17T03:14:15.950Z,955.6
2022-08-17T03:15:15.918Z,955.59
2022-08-17T03:16:15.983Z,955.61
2022-08-17T03:17:17.281Z,955.63
2022-08-17T03:18:18.898Z,955.64
2022-08-17T03:19:16.106Z,955.65
2022-08-17T03:23:15.962Z,955.68
2022-08-17T03:24:15.905Z,955.67
2022-08-17T03:28:16.044Z,955.68
2022-08-17T03:29:16.068Z,955.66
2022-08-17T03:30:15.920Z,955.7
2022-08-17T03:31:16.002Z,955.72
2022-08-17T03:32:15.966Z,955.8
2022-08-17T03:33:16.039Z,955.77
2022-08-17T03:34:15.926Z,955.81
2022-08-17T03:35:15.937Z,955.8
2022-08-17T03:36:16.043Z,955.79
2022-08-17T03:37:16.014Z,955.84
2022-08-17T03:38:16.046Z,955.83
2022-08-17T03:39:16.057Z,955.82
2022-08-17T03:40:15.993Z,955.85
2022-08-17T03:41:16.085Z,955.8
2022-08-17T03:42:31.726Z,955.81
2022-08-17T03:43:16.421Z,955.78
2022-08-17T03:44:16.095Z,955.83
2022-08-17T03:46:24.957Z,955.88
2022-08-17T03:47:16.108Z,955.85
2022-08-17T03:48:16.059Z,955.84
2022-08-17T03:49:16.031Z,955.88
2022-08-17T03:50:16.033Z,955.85
2022-08-17T03:52:16.026Z,955.87
2022-08-17T03:54:16.074Z,955.81
2022-08-17T03:55:16.032Z,955.86
2022-08-17T03:56:15.992Z,955.79
2022-08-17T03:57:16.076Z,955.82
2022-08-17T03:58:15.991Z,955.8
2022-08-17T03:59:18.520Z,955.84
2022-08-17T04:01:16.121Z,955.87
2022-08-17T04:03:16.010Z,955.9
2022-08-17T04:05:16.217Z,955.91
2022-08-17T04:06:16.082Z,955.93
2022-08-17T04:07:16.086Z,955.98
2022-08-17T04:08:16.021Z,956.02
2022-08-17T04:09:16.018Z,955.98
2022-08-17T04:10:16.161Z,955.97
2022-08-17T04:11:16.134Z,955.94
2022-08-17T04:12:16.092Z,955.95
2022-08-17T04:13:16.085Z,955.96
2022-08-17T04:14:16.132Z,955.98
2022-08-17T04:15:16.103Z,955.95
2022-08-17T04:16:16.107Z,955.99
2022-08-17T04:17:16.136Z,955.97
2022-08-17T04:18:16.104Z,956.02
2022-08-17T04:19:16.041Z,956.06
2022-08-17T04:20:16.139Z,956.07
2022-08-17T04:21:16.111Z,956.08
2022-08-17T04:22:31.490Z,956.06
2022-08-17T04:23:16.049Z,956.07
2022-08-17T04:24:16.217Z,956.09
2022-08-17T04:25:16.179Z,956.1
2022-08-17T04:26:50.566Z,956.08
2022-08-17T04:27:16.218Z,956.06
2022-08-17T04:28:16.426Z,956.07
2022-08-17T04:29:16.157Z,956.08
2022-08-17T04:30:16.217Z,956.06
2022-08-17T04:32:16.143Z,956.03
2022-08-17T04:33:16.462Z,956.02
2022-08-17T04:34:16.201Z,956.04
2022-08-17T04:35:16.153Z,955.98
2022-08-17T04:36:16.218Z,955.96
2022-08-17T04:38:16.093Z,955.97
2022-08-17T04:39:17.389Z,955.95
2022-08-17T04:40:16.243Z,955.98
2022-08-17T04:41:16.165Z,955.96
2022-08-17T04:42:16.138Z,956
2022-08-17T04:44:27.203Z,956.01
2022-08-17T04:45:16.133Z,955.99
2022-08-17T04:46:16.312Z,956.03
2022-08-17T04:47:16.111Z,956.04
2022-08-17T04:48:16.137Z,956.1
2022-08-17T04:49:16.118Z,956.08
2022-08-17T04:50:16.183Z,956.15
2022-08-17T04:51:16.157Z,956.21
2022-08-17T04:52:29.626Z,956.27
2022-08-17T04:53:16.345Z,956.28
2022-08-17T04:54:16.139Z,956.27
2022-08-17T04:55:16.223Z,956.34
2022-08-17T04:57:16.259Z,956.38
2022-08-17T04:58:16.151Z,956.4
2022-08-17T04:59:16.139Z,956.43
2022-08-17T05:00:16.149Z,956.48
2022-08-17T05:01:16.242Z,956.47
2022-08-17T05:02:16.159Z,956.52
2022-08-17T05:03:16.264Z,956.51
2022-08-17T05:04:19.939Z,956.53
2022-08-17T05:05:16.312Z,956.57
2022-08-17T05:07:19.817Z,956.56
2022-08-17T05:09:16.287Z,956.55
2022-08-17T05:10:16.243Z,956.57
2022-08-17T05:12:16.281Z,956.55
2022-08-17T05:13:16.252Z,956.53
2022-08-17T05:14:16.309Z,956.55
2022-08-17T05:17:16.195Z,956.54
2022-08-17T05:18:16.285Z,956.58
2022-08-17T05:19:16.194Z,956.62
2022-08-17T05:20:16.260Z,956.63
2022-08-17T05:21:16.294Z,956.61
2022-08-17T05:23:16.211Z,956.6
2022-08-17T05:25:16.397Z,956.59
2022-08-17T05:26:21.995Z,956.6
2022-08-17T05:27:18.777Z,956.59
2022-08-17T05:28:16.373Z,956.57
2022-08-17T05:29:16.341Z,956.54
2022-08-17T05:32:37.721Z,956.6
2022-08-17T05:33:16.796Z,956.57
2022-08-17T05:34:16.511Z,956.54
2022-08-17T05:35:16.352Z,956.51
2022-08-17T05:36:37.800Z,956.52
2022-08-17T05:37:16.532Z,956.49
2022-08-17T05:39:17.296Z,956.42
2022-08-17T05:40:16.307Z,956.45
2022-08-17T05:41:16.252Z,956.42
2022-08-17T05:42:16.318Z,956.41
2022-08-17T05:43:16.314Z,956.44
2022-08-17T05:44:16.262Z,956.42
2022-08-17T05:45:16.330Z,956.43
2022-08-17T05:46:16.398Z,956.41
2022-08-17T05:47:16.367Z,956.4
2022-08-17T05:48:16.336Z,956.41
2022-08-17T05:49:16.301Z,956.4
2022-08-17T05:50:18.032Z,956.42
2022-08-17T05:51:16.568Z,956.43
2022-08-17T05:52:18.754Z,956.44
2022-08-17T05:53:16.297Z,956.45
2022-08-17T05:54:16.340Z,956.48
2022-08-17T05:55:16.293Z,956.47
2022-08-17T05:56:29.482Z,956.37
2022-08-17T05:57:16.512Z,956.44
2022-08-17T05:58:16.415Z,956.43
2022-08-17T06:00:16.343Z,956.38
2022-08-17T06:01:16.461Z,956.37
2022-08-17T06:02:16.301Z,956.38
2022-08-17T06:03:16.358Z,956.35
2022-08-17T06:04:16.305Z,956.36
2022-08-17T06:05:16.315Z,956.34
2022-08-17T06:06:16.316Z,956.39
2022-08-17T06:07:16.421Z,956.38
2022-08-17T06:08:16.315Z,956.36
2022-08-17T06:09:18.779Z,956.41
2022-08-17T06:10:16.320Z,956.43
2022-08-17T06:11:16.409Z,956.45
2022-08-17T06:12:19.048Z,956.49
2022-08-17T06:13:16.560Z,956.54
2022-08-17T06:14:16.405Z,956.55
2022-08-17T06:16:17.792Z,956.56
2022-08-17T06:17:16.587Z,956.61
2022-08-17T06:18:19.078Z,956.6
2022-08-17T06:19:16.453Z,956.61
2022-08-17T06:21:16.352Z,956.63
2022-08-17T06:22:16.343Z,956.62
2022-08-17T06:23:16.415Z,956.68
2022-08-17T06:24:16.483Z,956.62
2022-08-17T06:25:16.449Z,956.58
2022-08-17T06:26:16.515Z,956.57
2022-08-17T06:27:16.385Z,956.5
2022-08-17T06:28:16.369Z,956.44
2022-08-17T06:29:18.501Z,956.41
2022-08-17T06:31:16.459Z,956.36
2022-08-17T06:33:16.390Z,956.38
2022-08-17T06:34:16.467Z,956.37
2022-08-17T06:35:16.377Z,956.36
2022-08-17T06:36:16.372Z,956.3
2022-08-17T06:37:16.459Z,956.33
2022-08-17T06:39:16.498Z,956.31
2022-08-17T06:41:16.450Z,956.28
2022-08-17T06:42:54.272Z,956.29
2022-08-17T06:43:16.499Z,956.31
2022-08-17T06:44:42.019Z,956.32
2022-08-17T06:45:16.502Z,956.28
2022-08-17T06:46:16.483Z,956.3
2022-08-17T06:47:28.298Z,956.28
2022-08-17T06:48:16.511Z,956.26
2022-08-17T06:49:16.481Z,956.23
2022-08-17T06:50:16.494Z,956.21
2022-08-17T06:51:16.511Z,956.23
2022-08-17T06:52:42.269Z,956.2
2022-08-17T06:53:16.461Z,956.21
2022-08-17T06:54:16.530Z,956.22
2022-08-17T06:55:18.206Z,956.18
2022-08-17T06:56:16.566Z,956.2
2022-08-17T06:57:16.532Z,956.18
2022-08-17T06:58:16.863Z,956.24
2022-08-17T06:59:16.444Z,956.37
2022-08-17T07:00:16.537Z,956.56
2022-08-17T07:01:16.571Z,956.66
2022-08-17T07:02:16.465Z,956.7
2022-08-17T07:03:16.625Z,956.78
2022-08-17T07:04:16.448Z,956.79
2022-08-17T07:06:16.543Z,956.87
2022-08-17T07:07:16.509Z,956.91
2022-08-17T07:08:16.582Z,956.83
2022-08-17T07:09:16.535Z,956.76
2022-08-17T07:10:16.466Z,956.66
2022-08-17T07:11:16.584Z,956.57
2022-08-17T07:12:16.546Z,956.47
2022-08-17T07:13:16.571Z,956.44
2022-08-17T07:14:17.269Z,956.53
2022-08-17T07:15:16.488Z,956.63
2022-08-17T07:16:16.499Z,956.69
2022-08-17T07:17:16.591Z,956.67
2022-08-17T07:18:16.654Z,956.65
2022-08-17T07:19:16.502Z,956.6
2022-08-17T07:20:16.598Z,956.63
2022-08-17T07:22:16.550Z,956.53
2022-08-17T07:23:16.585Z,956.57
2022-08-17T07:24:26.400Z,956.58
2022-08-17T07:25:16.628Z,956.54
2022-08-17T07:27:16.676Z,956.55
2022-08-17T07:28:16.632Z,956.54
2022-08-17T07:29:16.608Z,956.48
2022-08-17T07:30:16.605Z,956.51
2022-08-17T07:31:16.619Z,956.5
2022-08-17T07:32:16.609Z,956.53
2022-08-17T07:33:16.590Z,956.54
2022-08-17T07:34:16.645Z,956.45
2022-08-17T07:35:16.532Z,956.39
2022-08-17T07:36:16.690Z,956.3
2022-08-17T07:37:16.655Z,956.23
2022-08-17T07:38:24.459Z,956.15
2022-08-17T07:39:16.642Z,956.14
2022-08-17T07:40:17.019Z,956.08
2022-08-17T07:41:16.645Z,956.09
2022-08-17T07:42:16.610Z,956.04
2022-08-17T07:43:21.798Z,955.97
2022-08-17T07:45:16.567Z,955.94
2022-08-17T07:47:16.564Z,955.96
2022-08-17T07:49:16.669Z,955.94
2022-08-17T07:50:16.633Z,955.95
2022-08-17T07:51:16.587Z,955.99
2022-08-17T07:52:47.571Z,956.01
2022-08-17T07:53:16.743Z,956
2022-08-17T07:54:16.717Z,956.03
2022-08-17T07:55:16.665Z,956.04
2022-08-17T07:56:16.666Z,956.03
2022-08-17T07:57:16.601Z,955.99
2022-08-17T07:58:16.610Z,955.95
2022-08-17T07:59:16.596Z,956
2022-08-17T08:00:16.659Z,955.94
2022-08-17T08:01:17.177Z,955.89
2022-08-17T08:02:16.655Z,955.85
2022-08-17T08:03:16.719Z,955.83
2022-08-17T08:04:19.355Z,955.9
2022-08-17T08:05:18.177Z,955.87
2022-08-17T08:06:16.819Z,955.86
2022-08-17T08:07:16.703Z,955.88
2022-08-17T08:08:16.622Z,955.87
2022-08-17T08:09:16.631Z,955.86
2022-08-17T08:10:16.637Z,955.87
2022-08-17T08:11:16.676Z,955.92
2022-08-17T08:12:16.732Z,955.91
2022-08-17T08:13:16.708Z,955.99
2022-08-17T08:14:16.669Z,955.98
2022-08-17T08:15:16.649Z,956.02
2022-08-17T08:16:16.632Z,956.07
2022-08-17T08:17:16.667Z,956.05
2022-08-17T08:19:20.584Z,956.03
2022-08-17T08:20:19.742Z,956
2022-08-17T08:21:16.759Z,955.97
2022-08-17T08:22:16.660Z,956.09
2022-08-17T08:23:16.780Z,956.14
2022-08-17T08:24:16.656Z,956.19
2022-08-17T08:25:16.734Z,956.21
2022-08-17T08:26:18.694Z,956.15
2022-08-17T08:27:16.911Z,956.16
2022-08-17T08:29:16.797Z,956.14
2022-08-17T08:30:16.764Z,956.13
2022-08-17T08:31:16.750Z,956.17
2022-08-17T08:32:16.798Z,956.16
2022-08-17T08:33:16.756Z,956.17
2022-08-17T08:35:16.796Z,956.18
2022-08-17T08:36:57.252Z,956.24
2022-08-17T08:37:20.763Z,956.25
2022-08-17T08:39:16.772Z,956.29
2022-08-17T08:40:16.730Z,956.26
2022-08-17T08:41:16.703Z,956.28
2022-08-17T08:42:16.779Z,956.27
2022-08-17T08:44:16.809Z,956.24
2022-08-17T08:45:16.910Z,956.21
2022-08-17T08:47:16.807Z,956.25
2022-08-17T08:48:23.209Z,956.27
2022-08-17T08:49:17.015Z,956.29
2022-08-17T08:50:30.343Z,956.32
2022-08-17T08:51:16.959Z,956.35
2022-08-17T08:52:16.860Z,956.36
2022-08-17T08:53:16.819Z,956.33
2022-08-17T08:54:16.736Z,956.36
2022-08-17T08:55:16.741Z,956.35
2022-08-17T08:58:30.840Z,956.28
2022-08-17T08:59:16.954Z,956.24
2022-08-17T09:00:16.788Z,956.23
2022-08-17T09:01:17.255Z,956.2
2022-08-17T09:02:16.828Z,956.17
2022-08-17T09:03:16.801Z,956.19
2022-08-17T09:04:23.610Z,956.23
2022-08-17T09:05:16.914Z,956.24
2022-08-17T09:06:32.429Z,956.25
2022-08-17T09:07:16.877Z,956.27
2022-08-17T09:09:16.808Z,956.28
2022-08-17T09:11:16.847Z,956.3
2022-08-17T09:12:16.816Z,956.27
2022-08-17T09:13:16.793Z,956.32
2022-08-17T09:14:21.067Z,956.38
2022-08-17T09:15:16.844Z,956.34
2022-08-17T09:16:16.872Z,956.36
2022-08-17T09:17:18.352Z,956.41
2022-08-17T09:18:59.705Z,956.49
2022-08-17T09:19:17.011Z,956.5
2022-08-17T09:20:27.853Z,956.51
2022-08-17T09:21:18.155Z,956.5
2022-08-17T09:23:16.862Z,956.39
2022-08-17T09:24:16.948Z,956.31
2022-08-17T09:25:16.901Z,956.25
2022-08-17T09:26:16.870Z,956.24
2022-08-17T09:27:16.948Z,956.25
2022-08-17T09:28:16.933Z,956.28
2022-08-17T09:29:16.864Z,956.25
2022-08-17T09:30:16.989Z,956.24
2022-08-17T09:31:16.911Z,956.25
2022-08-17T09:32:16.881Z,956.24
2022-08-17T09:33:17.028Z,956.3
2022-08-17T09:34:16.905Z,956.32
2022-08-17T09:35:16.973Z,956.31
2022-08-17T09:37:16.850Z,956.38
2022-08-17T09:38:16.892Z,956.33
2022-08-17T09:39:16.954Z,956.3
2022-08-17T09:40:17.006Z,956.29
2022-08-17T09:42:16.951Z,956.24
2022-08-17T09:43:16.870Z,956.26
2022-08-17T09:44:23.497Z,956.25
2022-08-17T09:45:16.963Z,956.19
2022-08-17T09:46:16.914Z,956.17
2022-08-17T09:47:16.994Z,956.21
2022-08-17T09:48:18.132Z,956.22
2022-08-17T09:49:17.641Z,956.2
2022-08-17T09:50:17.002Z,956.19
2022-08-17T09:52:17.816Z,956.21
2022-08-17T09:53:17.004Z,956.19
2022-08-17T09:54:37.917Z,956.18
2022-08-17T09:55:16.931Z,956.17
2022-08-17T09:57:29.605Z,956.22
2022-08-17T09:58:16.948Z,956.24
2022-08-17T09:59:16.916Z,956.33
2022-08-17T10:01:16.972Z,956.3
2022-08-17T10:02:17.059Z,956.26
2022-08-17T10:04:20.043Z,956.25
2022-08-17T10:06:21.901Z,956.28
2022-08-17T10:07:16.930Z,956.35
2022-08-17T10:08:17.034Z,956.38
2022-08-17T10:09:17.110Z,956.44
2022-08-17T10:10:16.968Z,956.46
2022-08-17T10:11:16.942Z,956.48
2022-08-17T10:12:17.251Z,956.5
2022-08-17T10:13:17.682Z,956.41
2022-08-17T10:14:24.111Z,956.4
2022-08-17T10:15:17.380Z,956.39
2022-08-17T10:16:16.952Z,956.44
2022-08-17T10:17:17.038Z,956.39
2022-08-17T10:18:17.106Z,956.38
2022-08-17T10:19:17.075Z,956.39
2022-08-17T10:20:17.041Z,956.37
2022-08-17T10:21:17.023Z,956.34
2022-08-17T10:22:32.846Z,956.27
2022-08-17T10:23:17.039Z,956.2
2022-08-17T10:24:17.127Z,956.14
2022-08-17T10:25:21.931Z,956.09
2022-08-17T10:26:17.158Z,956.13
2022-08-17T10:29:17.141Z,956.11
2022-08-17T10:30:16.996Z,956.13
2022-08-17T10:31:34.052Z,956.09
2022-08-17T10:33:17.137Z,956.07
2022-08-17T10:34:17.091Z,956.12
2022-08-17T10:35:17.055Z,956.1
2022-08-17T10:36:17.013Z,956.2
2022-08-17T10:38:17.059Z,956.27
2022-08-17T10:39:17.015Z,956.29
2022-08-17T10:40:17.151Z,956.36
2022-08-17T10:41:17.076Z,956.33
2022-08-17T10:42:30.571Z,956.4
2022-08-17T10:43:17.019Z,956.43
2022-08-17T10:44:40.622Z,956.46
2022-08-17T10:45:17.142Z,956.51
2022-08-17T10:47:17.181Z,956.53
2022-08-17T10:48:17.143Z,956.47
2022-08-17T10:49:17.122Z,956.43
2022-08-17T10:50:17.069Z,956.37
2022-08-17T10:51:17.145Z,956.29
2022-08-17T10:52:17.107Z,956.24
2022-08-17T10:53:19.890Z,956.19
2022-08-17T10:54:17.060Z,956.26
2022-08-17T10:55:17.119Z,956.22
2022-08-17T10:56:17.067Z,956.25
2022-08-17T10:57:17.141Z,956.29
2022-08-17T10:59:17.188Z,956.3
2022-08-17T11:01:17.171Z,956.26
2022-08-17T11:02:17.190Z,956.29
2022-08-17T11:03:17.156Z,956.26
2022-08-17T11:04:17.130Z,956.28
2022-08-17T11:05:17.074Z,956.3
2022-08-17T11:06:17.166Z,956.2
2022-08-17T11:07:17.133Z,956.24
2022-08-17T11:08:17.418Z,956.25
2022-08-17T11:09:17.095Z,956.21
2022-08-17T11:10:17.135Z,956.16
2022-08-17T11:11:17.208Z,956.14
2022-08-17T11:12:17.104Z,956.19
2022-08-17T11:13:17.156Z,956.16
2022-08-17T11:14:17.226Z,956.21
2022-08-17T11:15:17.105Z,956.14
2022-08-17T11:16:17.142Z,956.15
2022-08-17T11:17:17.212Z,956.14
2022-08-17T11:18:17.175Z,956.13
2022-08-17T11:19:17.130Z,956.06
2022-08-17T11:20:17.210Z,956.01
2022-08-17T11:21:17.179Z,956.02
2022-08-17T11:23:17.215Z,956.06
2022-08-17T11:24:17.179Z,956.09
2022-08-17T11:25:17.160Z,956.08
2022-08-17T11:26:17.150Z,956.04
2022-08-17T11:27:17.137Z,956.07
2022-08-17T11:28:18.076Z,956.06
2022-08-17T11:29:17.147Z,956.01
2022-08-17T11:30:17.446Z,956
2022-08-17T11:32:17.428Z,956.05
2022-08-17T11:33:17.208Z,956.04
2022-08-17T11:34:17.165Z,956.06
2022-08-17T11:35:17.162Z,956.03
2022-08-17T11:36:17.191Z,956
2022-08-17T11:37:17.271Z,955.99
2022-08-17T11:38:17.237Z,955.92
2022-08-17T11:39:17.177Z,955.9
2022-08-17T11:40:17.349Z,955.88
2022-08-17T11:41:17.244Z,955.86
2022-08-17T11:42:17.212Z,955.91
2022-08-17T11:43:17.280Z,955.92
2022-08-17T11:44:17.255Z,955.85
2022-08-17T11:45:19.492Z,955.86
2022-08-17T11:47:17.200Z,955.78
2022-08-17T11:48:27.597Z,955.73
2022-08-17T11:49:17.427Z,955.69
2022-08-17T11:51:17.193Z,955.66
2022-08-17T11:52:17.294Z,955.65
2022-08-17T11:53:17.255Z,955.67
2022-08-17T11:54:32.621Z,955.66
2022-08-17T11:55:34.350Z,955.68
2022-08-17T11:56:17.390Z,955.63
2022-08-17T11:58:17.297Z,955.56
2022-08-17T11:59:17.267Z,955.57
2022-08-17T12:00:17.340Z,955.54
2022-08-17T12:01:17.228Z,955.53
2022-08-17T12:03:17.378Z,955.6
2022-08-17T12:04:17.318Z,955.61
2022-08-17T12:05:17.267Z,955.68
2022-08-17T12:06:17.241Z,955.67
2022-08-17T12:07:17.304Z,955.62
2022-08-17T12:08:17.272Z,955.58
2022-08-17T12:09:17.350Z,955.61
2022-08-17T12:11:17.249Z,955.56
2022-08-17T12:12:17.371Z,955.53
2022-08-17T12:13:17.316Z,955.58
2022-08-17T12:14:19.262Z,955.59
2022-08-17T12:15:17.479Z,955.57
2022-08-17T12:16:17.281Z,955.59
2022-08-17T12:17:18.884Z,955.56
2022-08-17T12:19:17.391Z,955.52
2022-08-17T12:20:17.494Z,955.51
2022-08-17T12:21:17.628Z,955.58
2022-08-17T12:22:17.455Z,955.59
2022-08-17T12:23:17.285Z,955.6
2022-08-17T12:24:17.368Z,955.62
2022-08-17T12:25:17.331Z,955.61
2022-08-17T12:26:17.403Z,955.54
2022-08-17T12:27:17.380Z,955.56
2022-08-17T12:28:19.825Z,955.58
2022-08-17T12:29:17.929Z,955.62
2022-08-17T12:30:17.483Z,955.63
2022-08-17T12:31:17.365Z,955.66
2022-08-17T12:32:17.414Z,955.62
2022-08-17T12:33:25.143Z,955.59
2022-08-17T12:34:17.453Z,955.64
2022-08-17T12:35:17.322Z,955.57
2022-08-17T12:36:17.312Z,955.55
2022-08-17T12:37:17.452Z,955.54
2022-08-17T12:38:27.008Z,955.57
2022-08-17T12:40:17.392Z,955.5
2022-08-17T12:41:17.418Z,955.43
2022-08-17T12:42:17.517Z,955.4
2022-08-17T12:43:17.458Z,955.42
2022-08-17T12:44:17.417Z,955.43
2022-08-17T12:45:17.391Z,955.45
2022-08-17T12:47:21.776Z,955.47
2022-08-17T12:48:17.482Z,955.44
2022-08-17T12:49:17.465Z,955.4
2022-08-17T12:50:28.166Z,955.36
2022-08-17T12:51:17.453Z,955.32
2022-08-17T12:52:17.463Z,955.29
2022-08-17T12:53:17.436Z,955.28
2022-08-17T12:54:17.364Z,955.34
2022-08-17T12:55:17.478Z,955.37
2022-08-17T12:56:17.442Z,955.33
2022-08-17T12:59:17.379Z,955.35
2022-08-17T13:00:17.403Z,955.33
2022-08-17T13:01:17.537Z,955.32
2022-08-17T13:02:17.451Z,955.29
2022-08-17T13:03:17.408Z,955.21
2022-08-17T13:04:17.480Z,955.15
2022-08-17T13:05:17.457Z,955.14
2022-08-17T13:06:17.520Z,955.11
2022-08-17T13:07:17.486Z,955.1
2022-08-17T13:08:17.476Z,955.01
2022-08-17T13:09:17.405Z,955.03
2022-08-17T13:12:17.523Z,955.04
2022-08-17T13:13:17.503Z,954.99
2022-08-17T13:14:17.432Z,954.98
2022-08-17T13:15:17.533Z,954.97
2022-08-17T13:16:17.440Z,954.98
2022-08-17T13:17:17.465Z,954.93
2022-08-17T13:19:17.498Z,954.92
2022-08-17T13:20:17.479Z,954.89
2022-08-17T13:22:17.507Z,954.86
2022-08-17T13:23:17.566Z,954.83
2022-08-17T13:24:17.535Z,954.77
2022-08-17T13:25:17.526Z,954.76
2022-08-17T13:27:17.545Z,954.72
2022-08-17T13:28:17.550Z,954.69
2022-08-17T13:29:17.552Z,954.64
2022-08-17T13:30:17.539Z,954.61
2022-08-17T13:31:17.470Z,954.57
2022-08-17T13:32:18.008Z,954.6
2022-08-17T13:34:17.527Z,954.61
2022-08-17T13:35:28.500Z,954.57
2022-08-17T13:36:19.313Z,954.54
2022-08-17T13:37:17.684Z,954.53
2022-08-17T13:38:17.595Z,954.5
2022-08-17T13:39:17.556Z,954.47
2022-08-17T13:40:17.540Z,954.43
2022-08-17T13:41:17.586Z,954.4
2022-08-17T13:42:21.848Z,954.43
2022-08-17T13:43:17.540Z,954.41
2022-08-17T13:44:17.602Z,954.44
2022-08-17T13:45:22.456Z,954.47
2022-08-17T13:46:17.530Z,954.48
2022-08-17T13:47:17.606Z,954.55
2022-08-17T13:48:17.577Z,954.53
2022-08-17T13:49:17.528Z,954.55
2022-08-17T13:51:17.532Z,954.52
2022-08-17T13:52:17.539Z,954.51
2022-08-17T13:53:17.621Z,954.43
2022-08-17T13:54:17.616Z,954.38
2022-08-17T13:55:17.649Z,954.39
2022-08-17T13:56:33.577Z,954.37
2022-08-17T13:58:17.748Z,954.39
2022-08-17T13:59:17.619Z,954.36
2022-08-17T14:02:17.620Z,954.35
2022-08-17T14:03:17.594Z,954.33
2022-08-17T14:04:17.652Z,954.29
2022-08-17T14:05:17.558Z,954.25
2022-08-17T14:06:23.736Z,954.23
2022-08-17T14:07:17.799Z,954.24
2022-08-17T14:08:17.634Z,954.25
2022-08-17T14:09:17.603Z,954.22
2022-08-17T14:10:17.673Z,954.19
2022-08-17T14:11:17.636Z,954.17
2022-08-17T14:12:17.596Z,954.14
2022-08-17T14:13:17.676Z,954.17
2022-08-17T14:14:17.577Z,954.15
2022-08-17T14:15:17.603Z,954.22
2022-08-17T14:18:17.601Z,954.24
2022-08-17T14:19:17.605Z,954.2
2022-08-17T14:20:17.666Z,954.18
2022-08-17T14:21:17.618Z,954.14
2022-08-17T14:22:17.686Z,954.13
2022-08-17T14:23:17.655Z,954.08
2022-08-17T14:24:17.729Z,954.09